Nearby METAR Reports

 

LBGO - Gorna Oryahovista, Bulgaria
Distance from station: NE 50km
Updated: 19/04/2018 18:00
Mostly cloudy
Mostly cloudy
 Wind from WNW
Wind: WNW 11 km/h
Temperature: 23°C
Dew Point: 12°C
Humidity: 50%
Barometer: 1018 hPa
Clouds: Mostly cloudy
Visibility: 10 km
Cloud details: Mostly cloudy 1676 m
Mostly cloudy 1981 m
2018/04/19 15:00 LBGO 191500Z AUTO 30006KT 9999 BKN055/// BKN065/// 23/12 Q1018 NOSIG